Airfield :
LOGIN :

Register | Disclaimer

   EN    FR    IT 

 










Legend :    VFR   Marginal VFR   IFR   Intensive IFR   Very Intensive IFR
Visi :
Ceiling :
>= 8 km
>= 3000ft
5 to 8 km
1000 to 3000 ft
1500m to 5 km
500 to 1000 ft
800 to 1500m
200 to 500 ft
< 800m
< 200 ft
Symbols :   Thunderstorms  Fog  Heavy snow  Heavy precipitations  Wind > 20 kt
SIGMETs :     Misc.  Thunderstorms  Icing  Turbulence  Mountain Waves  Volcanic Ashes







- Airport Elevation : 13 ft
- IATA code : SNR
- Download approach charts


LFRZ - St-Nazaire

CURRENT METAR :
  • 260630Z AUTO 06016KT CAVOK 19/17 Q1018 NOSIG

EXPIRED METARs :
  • 260600Z AUTO 02008KT 350V060 9999 ///CB 17/16 Q1019 TEMPO 4000 SHRA BECMG NSC
  • 260530Z AUTO 27010KT 240V300 9999 VCTS ///CB 18/16 Q1021 TEMPO 4000 SHRA BECMG 02010KT
  • 260500Z AUTO 30006KT 250V030 9999 VCTS FEW031/// BKN090/// BKN140/// ///CB 18/16 Q1019 TEMPO 03015G30KT 4000 TSRA BECMG NSC
  • 260430Z AUTO 02009KT 9999 ///CB 18/16 Q1018 TEMPO 03015G30KT 4000 TSRA BECMG NSC
  • 260400Z AUTO 01008KT CAVOK 17/16 Q1018 TEMPO 03015G30KT 4000 TSRA BKN050CB

TAF AMD TAF LFRZ
Valid from the 26 at 06:00 until the 27 at 06:00 UTC


260533Z 2606/2706 02010KT 9999 SCT050CB
TEMPO 2606/2607 4000 SHRA SCT050CB
PROB40
TEMPO 2606/2607 TSRA BKN050CB
BECMG 2607/2609 CAVOK
BECMG 2612/2614 10010KT
BECMG 2621/2624 02010KT
BECMG 2704/2706 08010KT
No reported NOTAMs for that airfield.
2 SIGMETs reported for the Brest FIR (LFRR) :
 
Embedded thunderstorms
LFRR SIGMET 6 VALID 260600/260800 LFPW
LFRR BREST FIR/UIR EMBD TS OBS WI N4515 W00730 - N4700 W00615 - N4800 W00330 - N4745 W00300 - N4530 W00600 - N4515 W00730 TOP FL360 MOV N 20KT NC=
Embedded thunderstorms
LFRR SIGMET 5 VALID 260600/260800 LFPW
LFRR BREST FIR/UIR EMBD TS OBS WI N4545 W00345 - N4800 W00215 - N4745 W00130 - N4530 W00300 - N4545 W00345 TOP FL360 MOV N 20KT NC=



MET'MAP, your aeronautical weather chart ! - Copyright ORBIFLY December 2007 - Disclaimer

ORBIFLY MET'MAP TEAM :

Programming & Development : Alexandra Zaïnal
Concept & Development : Baudouin d'Aumeries
Co-Development & Prog : Marc-Olivier Méhu
Technical & hardware support : Manuel Goepfert

Contact : metmap@orbifly.com




SOURCES & CREDITS :

   NOAA